createdAt,value
2016-04-09T00:17:09.675Z,15
2016-04-09T00:17:27.194Z,15
2016-04-09T00:17:44.475Z,15
2016-04-09T00:17:54.616Z,15
2016-04-09T00:18:04.803Z,15
2016-04-09T00:19:07.149Z,15
2016-04-09T00:19:17.790Z,15
2016-04-09T00:19:27.887Z,15
2016-04-09T00:19:37.683Z,0
2016-04-09T00:20:44.655Z,0
2016-04-09T00:20:55.530Z,0
2016-04-09T00:21:06.030Z,0
2016-04-09T00:21:16.452Z,0
2016-04-09T00:21:26.939Z,0
2016-04-09T00:21:36.908Z,0
2016-04-09T00:22:46.567Z,0
2016-04-09T00:23:50.913Z,0
2016-04-09T00:24:00.976Z,0
2016-04-09T00:24:12.601Z,0
2016-04-09T00:24:22.648Z,0
2016-04-09T00:24:32.869Z,0
2016-04-09T00:24:42.932Z,0
2016-04-09T00:24:52.947Z,0
2016-04-09T00:25:03.557Z,0
2016-04-09T01:57:03.013Z,0
2016-04-09T01:58:16.280Z,0
2016-04-09T01:58:34.283Z,0
2016-04-09T01:58:44.924Z,0
2016-04-09T01:58:55.268Z,0
2016-04-09T01:59:05.268Z,0
2016-04-09T01:59:15.783Z,0
2016-04-09T01:59:34.490Z,0
2016-04-09T01:59:51.552Z,8
2016-04-09T02:00:01.677Z,8
2016-04-09T02:00:12.896Z,8
2016-04-09T02:00:30.305Z,0
2016-04-09T02:00:40.868Z,0
2016-04-09T02:00:58.071Z,0
2016-04-09T02:01:15.539Z,0
2016-04-09T02:01:33.199Z,0
2016-04-09T02:01:43.214Z,0
2016-04-09T02:01:53.121Z,0
2016-04-09T02:02:03.761Z,0
2016-04-09T02:02:13.886Z,0
2016-04-09T02:02:23.902Z,0
2016-04-09T02:03:33.704Z,0
2016-04-09T02:03:44.282Z,0
2016-04-09T02:03:54.626Z,0
2016-04-09T02:04:04.735Z,0
2016-04-09T02:04:14.907Z,0
2016-04-09T02:04:25.003Z,0
2016-04-09T02:04:42.831Z,0
2016-04-09T02:04:53.534Z,0
2016-04-09T02:05:04.768Z,0
2016-04-09T02:06:03.724Z,0
2016-04-09T02:06:20.943Z,0
2016-04-09T02:07:23.259Z,0
2016-04-09T02:07:41.292Z,0
2016-04-09T02:07:51.323Z,0
2016-04-09T02:08:01.542Z,0
2016-04-09T02:09:14.795Z,0
2016-04-09T02:09:24.969Z,0
2016-04-09T02:09:36.141Z,0
2016-04-09T02:09:50.406Z,0
2016-04-09T02:10:00.922Z,0
2016-04-09T02:10:11.484Z,0
2016-04-09T02:10:21.953Z,0
2016-04-09T02:10:34.237Z,0
2016-04-09T02:10:44.675Z,0
2016-04-09T02:10:54.644Z,0
2016-04-09T02:11:11.815Z,0
2016-04-09T02:12:18.912Z,0
2016-04-09T02:13:27.573Z,0
2016-04-09T02:13:37.573Z,0
2016-04-09T02:13:47.698Z,0
2016-04-09T02:13:57.839Z,0
2016-04-09T02:14:08.308Z,0
2016-04-09T02:14:19.886Z,0
2016-04-09T02:14:29.843Z,0
2016-04-09T02:15:12.140Z,0
2016-04-09T02:15:23.077Z,0
2016-04-09T02:15:33.673Z,0
2016-04-09T02:15:44.079Z,0
2016-04-09T02:15:54.376Z,0
2016-04-09T02:16:04.939Z,0
2016-04-09T02:16:16.017Z,0
2016-04-09T02:16:26.645Z,0
2016-04-09T02:16:37.270Z,0
2016-04-09T02:17:42.945Z,0
2016-04-09T02:17:53.304Z,0
2016-04-09T02:18:03.132Z,0
2016-04-09T02:18:14.664Z,0
2016-04-09T02:18:24.775Z,0
2016-04-09T02:18:34.900Z,0
2016-04-09T02:19:39.997Z,0
2016-04-09T02:19:50.465Z,0
2016-04-09T02:20:01.700Z,0
2016-04-09T02:20:19.044Z,0
2016-04-09T02:20:30.092Z,0
2016-04-09T02:20:40.858Z,0
2016-04-09T02:20:51.202Z,0
2016-04-09T02:21:01.171Z,0
2016-04-09T02:21:11.702Z,0
2016-04-09T02:21:23.483Z,0
2016-04-09T02:21:33.533Z,0
2016-04-09T02:22:34.770Z,0
2016-04-09T02:23:45.023Z,0
2016-04-09T02:23:55.008Z,0
2016-04-09T03:54:57.470Z,0
2016-04-09T03:55:16.799Z,0
2016-04-09T03:55:34.536Z,0
2016-04-09T03:55:47.192Z,0
2016-04-09T03:55:57.161Z,0
2016-04-09T03:56:07.895Z,0
2016-04-09T03:56:17.848Z,0
2016-04-09T03:56:35.288Z,0
2016-04-09T03:56:45.147Z,15
2016-04-09T03:56:55.007Z,0
2016-04-09T03:57:04.882Z,15
2016-04-09T03:57:15.272Z,15
2016-04-09T03:58:23.103Z,15
2016-04-09T03:58:33.762Z,15
2016-04-09T03:58:43.762Z,15
2016-04-09T03:58:53.715Z,15
2016-04-09T04:04:04.511Z,15
2016-04-09T04:04:14.417Z,8
2016-04-09T04:04:24.527Z,8
2016-04-09T04:04:34.372Z,8
2016-04-09T04:04:44.591Z,8
2016-04-09T04:05:01.810Z,8
2016-04-09T04:06:09.063Z,8
2016-04-09T04:06:19.047Z,8
2016-04-09T04:06:29.675Z,8
2016-04-09T04:06:40.269Z,8
2016-04-09T04:06:50.613Z,8
2016-04-09T04:07:00.722Z,8
2016-04-09T04:07:11.472Z,8
2016-04-09T04:07:28.209Z,26
2016-04-09T04:07:45.255Z,26
2016-04-09T04:08:59.383Z,26
2016-04-09T04:09:09.462Z,26
2016-04-09T04:09:19.415Z,26
2016-04-09T04:12:52.910Z,53
2016-04-09T04:13:02.816Z,70
2016-04-09T04:13:19.723Z,43
2016-04-09T04:13:29.507Z,43
2016-04-09T04:13:39.522Z,43
2016-04-09T04:13:49.397Z,43
2016-04-09T04:13:59.132Z,62
2016-04-09T04:14:09.038Z,62
2016-04-09T04:14:19.132Z,62
2016-04-09T04:14:29.118Z,62
2016-04-09T04:14:39.024Z,79
2016-04-09T04:14:48.774Z,79
2016-04-09T04:15:01.556Z,52
2016-04-09T04:15:12.915Z,52
2016-04-09T04:15:24.462Z,70
2016-04-09T04:15:34.356Z,70
2016-04-09T04:15:51.949Z,88
2016-04-09T04:16:09.324Z,88
2016-04-09T04:16:19.027Z,60
2016-04-09T04:16:28.920Z,79
2016-04-09T04:16:38.795Z,79
2016-04-09T04:16:49.654Z,79
2016-04-09T04:16:59.373Z,97
2016-04-09T04:17:09.170Z,97
2016-04-09T04:17:19.123Z,114
2016-04-09T04:17:36.048Z,87
2016-04-09T04:17:46.532Z,105
2016-04-09T04:17:56.407Z,105
2016-04-09T04:18:06.532Z,105
2016-04-09T04:18:16.501Z,123
2016-04-09T04:18:27.989Z,95
2016-04-09T04:18:37.817Z,114
2016-04-09T04:18:48.051Z,114
2016-04-09T04:19:09.410Z,104
2016-04-09T04:19:26.741Z,122
2016-04-09T04:19:36.600Z,140
2016-04-09T04:19:46.506Z,140
2016-04-09T04:19:56.709Z,130
2016-04-09T04:21:04.447Z,130
2016-04-09T04:21:21.540Z,166
2016-04-09T04:21:38.480Z,174
2016-04-09T04:21:48.433Z,192
2016-04-09T04:21:58.371Z,192
2016-04-09T04:22:07.761Z,182
2016-04-09T04:22:25.027Z,219
2016-04-09T04:23:39.752Z,252
2016-04-09T04:23:49.720Z,243
2016-04-09T04:24:07.252Z,251
2016-04-09T04:24:17.283Z,241
2016-04-09T04:25:23.269Z,273
2016-04-09T04:25:33.023Z,281
2016-04-09T04:25:42.758Z,290
2016-04-09T04:25:53.914Z,288
2016-04-09T04:26:05.133Z,296
2016-04-09T04:27:12.556Z,298
2016-04-09T04:27:22.400Z,313
2016-04-09T04:27:32.153Z,315
2016-04-09T04:27:43.372Z,314
2016-04-09T04:27:53.122Z,327
2016-04-09T05:31:44.606Z,0
2016-04-09T05:32:53.703Z,0
2016-04-09T05:33:11.891Z,0
2016-04-09T05:33:22.719Z,0
2016-04-09T05:33:34.236Z,0
2016-04-09T05:33:51.861Z,0
2016-04-09T05:34:03.783Z,0
2016-04-09T05:34:14.049Z,0
2016-04-09T05:34:24.080Z,0
2016-04-09T05:34:34.927Z,0
2016-04-09T05:34:44.739Z,0
2016-04-09T05:34:55.193Z,0
2016-04-09T05:35:05.083Z,0
2016-04-09T05:36:11.913Z,0
2016-04-09T05:37:22.963Z,0
2016-04-09T05:37:32.794Z,0
2016-04-09T05:37:50.185Z,0
2016-04-09T05:38:07.466Z,0
2016-04-09T05:38:17.232Z,0
2016-04-09T05:38:27.032Z,0
2016-04-09T05:38:44.063Z,0
2016-04-09T05:38:53.922Z,0
2016-04-09T05:39:03.766Z,0
2016-04-09T05:39:13.297Z,0
2016-04-09T05:39:25.219Z,0
2016-04-09T05:39:42.175Z,0
2016-04-09T05:39:52.050Z,0
2016-04-09T05:40:52.552Z,0
2016-04-09T05:41:09.490Z,0
2016-04-09T05:41:19.302Z,0
2016-04-09T05:41:30.821Z,0
2016-04-09T05:41:49.055Z,0
2016-04-09T05:41:59.430Z,0
2016-04-09T05:42:16.977Z,0
2016-04-09T05:42:26.745Z,262086
2016-04-09T05:42:44.417Z,116
2016-04-09T05:43:09.042Z,346
2016-04-09T05:43:18.979Z,475
2016-04-09T05:44:24.779Z,1336
2016-04-09T05:44:34.813Z,1473
2016-04-09T05:44:45.126Z,1539
2016-04-09T05:44:55.438Z,1588
2016-04-09T05:46:12.331Z,2446
2016-04-09T05:46:24.909Z,2623
2016-04-09T05:46:34.850Z,2774
2016-04-09T05:46:45.365Z,2941
2016-04-09T05:47:51.602Z,3755
2016-04-09T05:48:08.992Z,4526
2016-04-09T05:48:18.867Z,4920
2016-04-09T05:48:29.964Z,5275
2016-04-09T05:48:40.636Z,5697
2016-04-09T05:48:50.558Z,5972
2016-04-09T05:49:07.792Z,6824
2016-04-09T05:49:17.776Z,7295
2016-04-09T05:49:27.779Z,7611
2016-04-09T05:49:38.420Z,7828
2016-04-09T05:50:06.795Z,8389
2016-04-09T05:50:18.342Z,8638
2016-04-09T05:50:28.345Z,8939
2016-04-09T05:50:38.298Z,9166
2016-04-09T05:50:48.657Z,9519
2016-04-09T05:50:58.782Z,9772
2016-04-09T05:51:16.501Z,10345
2016-04-09T05:51:26.425Z,10549
2016-04-09T05:51:36.863Z,10759
2016-04-09T05:51:46.878Z,11027
2016-04-09T05:51:56.925Z,11464
2016-04-09T05:52:08.753Z,12090
2016-04-09T05:52:27.569Z,12995
2016-04-09T05:52:44.662Z,14080
2016-04-09T05:52:54.709Z,14568
2016-04-09T05:53:04.772Z,15086
2016-04-09T06:26:17.940Z,0
2016-04-09T06:26:29.442Z,0
2016-04-09T06:26:39.426Z,0
2016-04-09T06:26:50.333Z,0
2016-04-09T06:27:00.801Z,0
2016-04-09T06:27:12.395Z,0
2016-04-09T06:27:22.583Z,0
2016-04-09T06:27:33.382Z,0
2016-04-09T06:27:43.742Z,262036
2016-04-09T06:27:53.648Z,262060
2016-04-09T06:28:04.226Z,262033
2016-04-09T06:28:15.711Z,262059
2016-04-09T06:28:25.757Z,262092
2016-04-09T06:28:36.822Z,16
2016-04-09T06:28:47.588Z,156
2016-04-09T06:29:52.653Z,347
2016-04-09T06:30:14.591Z,108523
2016-04-09T06:31:23.250Z,107051
2016-04-09T06:31:33.361Z,106426
2016-04-09T06:31:50.549Z,104512
2016-04-09T06:32:02.674Z,102955
2016-04-09T06:32:14.033Z,101753
2016-04-09T06:32:25.158Z,101115
2016-04-09T06:32:36.036Z,99999
2016-04-09T06:32:46.911Z,99300
2016-04-09T06:33:04.567Z,98013
2016-04-09T06:34:10.116Z,92794
2016-04-09T06:34:20.069Z,92633
2016-04-09T06:34:32.542Z,93238
2016-04-09T06:34:44.948Z,93661
2016-04-09T06:34:57.651Z,93641
2016-04-09T06:35:51.247Z,94910
2016-04-09T06:37:50.738Z,96402
2016-04-09T06:38:09.581Z,194965
2016-04-09T06:38:20.003Z,1376
2016-04-09T06:38:30.755Z,288
2016-04-09T06:38:41.755Z,261593
2016-04-09T06:38:51.771Z,260970
2016-04-09T06:39:01.786Z,260426
2016-04-09T06:39:20.036Z,259702
2016-04-09T06:39:37.133Z,259745
2016-04-09T06:39:48.336Z,260117
2016-04-09T06:39:59.274Z,260644
2016-04-09T06:40:13.414Z,261282
2016-04-09T06:40:23.524Z,261762
2016-04-09T06:40:34.041Z,286
2016-04-09T06:40:44.604Z,1143
2016-04-09T06:40:54.682Z,1977
2016-04-09T06:41:09.495Z,260682
2016-04-09T06:41:27.948Z,261890
2016-04-09T06:41:39.499Z,517
2016-04-09T06:41:50.795Z,1188
2016-04-09T06:42:08.874Z,897
2016-04-09T06:42:20.561Z,107775
2016-04-09T06:42:31.016Z,105800
2016-04-09T06:42:49.235Z,103544
2016-04-09T06:42:59.672Z,102943
2016-04-09T06:43:11.001Z,102562
2016-04-09T06:43:28.735Z,101790
2016-04-09T06:43:38.785Z,101753
2016-04-09T06:43:50.519Z,101299
2016-04-09T06:44:00.707Z,100073
2016-04-09T06:44:11.207Z,98540
2016-04-09T08:51:32.472Z,3569
2016-04-09T08:52:51.415Z,482
2016-04-09T08:54:00.558Z,2047
2016-04-09T08:54:12.917Z,2445
2016-04-09T08:55:29.405Z,3834
2016-04-09T08:55:41.845Z,3759
2016-04-09T09:00:40.779Z,103347
2016-04-09T09:00:55.513Z,104574
2016-04-09T09:01:10.045Z,104733
2016-04-09T09:02:13.814Z,101508
2016-04-09T09:02:33.064Z,101177
2016-04-09T09:03:43.897Z,93903
2016-04-09T09:03:58.538Z,88824
2016-04-09T09:04:12.069Z,82496
2016-04-09T09:05:24.135Z,60245
2016-04-09T09:05:37.604Z,59725
2016-04-09T09:05:47.794Z,57717
2016-04-09T09:06:54.140Z,74447
2016-04-09T09:07:58.253Z,79191
2016-04-09T09:37:59.036Z,108351
2016-04-09T09:40:59.654Z,1298
2016-04-09T09:41:11.419Z,84814
2016-04-09T09:41:23.029Z,89812
2016-04-09T09:41:39.888Z,92472
2016-04-09T09:42:46.003Z,81166
2016-04-09T10:22:26.032Z,48440
2016-04-09T10:22:39.032Z,40678
2016-04-09T10:23:48.707Z,26469
2016-04-09T10:24:00.381Z,26278
2016-04-09T10:25:10.884Z,28694
2016-04-09T10:26:18.637Z,44700
2016-04-09T10:26:31.293Z,46457
2016-04-09T10:27:42.281Z,57494
2016-04-09T10:27:56.205Z,61435
2016-04-09T10:29:52.707Z,76082
2016-04-09T10:30:13.459Z,74521
2016-04-09T10:41:28.631Z,106597
2016-04-09T10:41:44.084Z,108400
2016-04-09T10:41:55.883Z,108841
2016-04-09T10:43:02.152Z,1033
2016-04-09T10:45:10.469Z,1141
2016-04-09T10:45:21.985Z,1140
2016-04-09T10:45:33.594Z,1176
2016-04-09T10:46:39.207Z,1294
2016-04-09T10:46:50.238Z,1285
2016-04-09T10:47:03.615Z,1473
2016-04-09T10:47:15.615Z,1668
2016-04-09T10:47:27.724Z,1623
2016-04-09T10:48:41.071Z,1674
2016-04-09T10:48:52.024Z,1766
2016-04-09T10:49:08.090Z,1768
2016-04-09T10:59:33.428Z,3991
2016-04-09T10:59:46.287Z,3808
2016-04-09T11:00:50.884Z,4264
2016-04-09T11:01:02.731Z,4359
2016-04-09T11:08:35.328Z,4276
2016-04-09T11:08:48.078Z,4272
2016-04-09T11:09:02.722Z,3892
2016-04-09T11:09:16.534Z,3974
2016-04-09T11:09:29.190Z,3882
2016-04-09T11:09:42.065Z,3934
2016-04-09T11:11:41.759Z,4051
2016-04-09T11:12:00.744Z,3634
2016-04-09T11:13:13.294Z,4292
2016-04-09T11:13:23.654Z,4361
2016-04-09T11:13:41.325Z,4784
2016-04-09T11:13:53.638Z,4860
2016-04-09T11:14:09.828Z,4549
2016-04-09T11:14:25.469Z,3835
2016-04-09T11:14:37.485Z,2789
2016-04-09T11:14:51.172Z,2326
2016-04-09T11:15:59.350Z,1853
2016-04-09T11:16:11.803Z,2180
2016-04-09T11:16:48.663Z,2705
2016-04-09T11:17:01.993Z,2832
2016-04-09T11:17:13.383Z,2789
2016-04-09T11:18:22.839Z,2758
2016-04-09T11:18:35.433Z,2662
2016-04-09T11:18:48.246Z,2661
2016-04-09T11:18:59.685Z,2570
2016-04-09T11:19:11.201Z,2362
2016-04-09T11:20:22.266Z,2323
2016-04-09T11:20:44.032Z,2514
2016-04-09T11:26:52.690Z,410
2016-04-09T11:28:04.491Z,729
2016-04-09T11:28:17.773Z,529
2016-04-09T11:44:02.863Z,5064
2016-04-09T11:44:18.519Z,4323
2016-04-09T11:44:33.144Z,4533
2016-04-09T11:46:41.524Z,4033
2016-04-09T11:46:53.149Z,4690
2016-04-09T11:47:05.136Z,3959
2016-04-09T12:02:22.614Z,6641
2016-04-09T12:02:36.067Z,7065
2016-04-09T12:03:43.523Z,6858
2016-04-09T12:04:03.619Z,7322
2016-04-09T12:04:22.681Z,7491
2016-04-09T12:04:36.509Z,6063
2016-04-09T12:04:48.744Z,6097
2016-04-09T12:05:02.497Z,5603
2016-04-09T12:06:17.422Z,3856
2016-04-09T12:07:20.830Z,5550
2016-04-09T12:09:19.023Z,2293
2016-04-09T12:09:30.945Z,2081
2016-04-09T12:10:46.760Z,1338
2016-04-09T12:38:30.320Z,0
2016-04-09T12:38:40.664Z,0
2016-04-09T12:38:54.179Z,0
2016-04-09T12:40:57.357Z,121316
2016-04-09T12:42:15.299Z,120791
2016-04-09T12:42:27.033Z,118908
2016-04-09T12:42:39.002Z,118325
2016-04-09T12:42:50.643Z,119228
2016-04-09T12:43:01.505Z,120486
2016-04-09T12:44:12.570Z,119882
2016-04-09T12:44:25.914Z,121287
2016-04-09T12:44:39.852Z,122621
2016-04-09T12:44:52.633Z,122284
2016-04-09T12:45:09.433Z,120797
2016-04-09T12:46:26.373Z,122451
2016-04-09T12:51:00.621Z,117511
2016-04-09T12:51:19.902Z,1352
2016-04-09T12:51:31.574Z,1277
2016-04-09T12:54:32.098Z,524
2016-04-09T12:54:43.161Z,766
2016-04-09T12:54:54.364Z,773
2016-04-09T12:55:07.710Z,896
2016-04-09T12:56:17.274Z,1056
2016-04-09T13:42:06.351Z,1435
2016-04-09T13:42:16.898Z,1389
2016-04-09T13:43:19.823Z,1179
2016-04-09T13:43:31.073Z,1133
2016-04-09T13:44:42.435Z,722
2016-04-09T13:45:50.157Z,437
2016-04-09T13:46:01.892Z,438
2016-04-09T13:46:20.112Z,530
2016-04-09T13:46:34.972Z,685
2016-04-09T13:48:47.040Z,930
2016-04-09T13:49:07.277Z,1406
2016-04-09T13:49:18.699Z,1432
2016-04-09T13:49:29.917Z,1502
2016-04-09T13:49:40.417Z,1551
2016-04-09T13:50:47.061Z,1619
2016-04-09T13:51:19.063Z,1610
2016-04-09T13:51:30.579Z,1644
2016-04-09T13:52:44.847Z,124162
2016-04-09T13:53:56.006Z,124676
2016-04-09T13:55:03.824Z,123805
2016-04-09T13:55:27.261Z,257353
2016-04-09T13:55:37.590Z,257732
2016-04-09T13:55:48.980Z,258286
2016-04-09T13:56:02.639Z,259104
2016-04-09T13:57:07.173Z,258424
2016-04-09T13:57:19.204Z,257773
2016-04-09T13:57:30.470Z,258071
2016-04-09T13:57:42.141Z,258366
2016-04-09T13:57:59.720Z,258549
2016-04-09T13:58:13.754Z,258798
2016-04-09T13:59:29.819Z,547
2016-04-09T13:59:40.851Z,762
2016-04-09T13:59:52.054Z,1325
2016-04-09T14:37:29.906Z,2199
2016-04-09T14:38:36.768Z,2601
2016-04-09T14:38:55.987Z,2326
2016-04-09T14:39:07.896Z,2194
2016-04-09T14:39:19.255Z,1854
2016-04-09T14:40:37.758Z,1640
2016-04-09T14:40:49.040Z,261936
2016-04-09T14:41:00.962Z,262025
2016-04-09T14:41:12.275Z,262087
2016-04-09T14:41:29.588Z,193
2016-04-09T14:41:44.056Z,262140
2016-04-09T14:41:56.963Z,261991
2016-04-09T14:42:15.419Z,18
2016-04-09T14:42:36.106Z,288
2016-04-09T14:42:48.919Z,134
2016-04-09T14:43:50.469Z,261588
2016-04-09T14:44:01.906Z,261687
2016-04-09T14:45:09.146Z,482
2016-04-09T14:54:43.936Z,0
2016-04-09T14:56:00.157Z,6115
2016-04-09T14:57:02.347Z,6001
2016-04-09T14:58:09.822Z,203504
2016-04-09T14:58:20.510Z,204015
2016-04-09T14:58:33.900Z,204733
2016-04-09T14:59:40.184Z,204936
2016-04-09T14:59:54.825Z,204706
2016-04-09T15:00:08.155Z,204267
2016-04-09T15:02:17.426Z,4568
2016-04-09T15:02:29.441Z,3950
2016-04-09T15:23:07.389Z,0
2016-04-09T15:23:21.342Z,88385
2016-04-09T15:25:23.488Z,98680
2016-04-09T15:25:34.347Z,98895
2016-04-09T15:26:42.178Z,101668
2016-04-09T15:26:52.585Z,101718
2016-04-09T15:27:12.713Z,102550
2016-04-09T15:27:22.931Z,103471
2016-04-09T15:28:34.027Z,94063
2016-04-09T15:29:43.374Z,88737
2016-04-09T15:29:55.046Z,87639
2016-04-09T15:30:07.282Z,87384
2016-04-09T15:31:11.551Z,87797
2016-04-09T15:31:24.613Z,89410
2016-04-09T15:32:34.976Z,96832
2016-04-09T15:32:46.944Z,97936
2016-04-09T15:32:59.694Z,99084
2016-04-09T15:33:11.681Z,99968
2016-04-09T15:34:20.277Z,103615
2016-04-09T15:34:33.543Z,105811
2016-04-09T15:36:35.862Z,92594
2016-04-09T15:37:44.396Z,76124
2016-04-09T16:07:31.056Z,1725
2016-04-09T16:07:45.431Z,1691
2016-04-09T16:08:04.931Z,1623
2016-04-09T16:09:14.868Z,1595
2016-04-09T16:11:20.415Z,261626
2016-04-09T16:11:36.931Z,261595
2016-04-09T16:11:50.697Z,261617
2016-04-09T16:12:07.259Z,261644
2016-04-09T16:12:18.501Z,261674
2016-04-09T16:13:27.853Z,261754
2016-04-09T16:17:25.045Z,0
2016-04-09T16:43:48.513Z,0
2016-04-09T16:44:02.060Z,0
2016-04-09T16:44:21.344Z,0
2016-04-09T16:44:31.875Z,0
2016-04-09T16:44:44.453Z,0
2016-04-09T16:44:55.985Z,0
2016-04-09T16:45:10.363Z,0
2016-04-09T16:45:22.566Z,0
2016-04-09T16:45:34.222Z,0
2016-04-09T16:45:44.941Z,0
2016-04-09T16:45:55.175Z,0
2016-04-09T16:48:03.852Z,0
2016-04-09T16:48:26.323Z,0
2016-04-09T16:48:37.213Z,0
2016-04-09T16:48:49.198Z,0
2016-04-09T16:49:01.166Z,0
2016-04-09T16:49:14.794Z,0
2016-04-09T16:49:25.029Z,0
2016-04-09T16:49:37.826Z,0
2016-04-09T16:49:53.185Z,0
2016-04-09T16:50:06.341Z,0
2016-04-09T16:51:12.924Z,0
2016-04-09T17:02:25.954Z,0
2016-04-09T17:02:41.314Z,0
2016-04-09T17:03:47.706Z,0
2016-04-09T17:04:00.644Z,0
2016-04-09T17:05:12.759Z,0
2016-04-09T17:05:30.447Z,0
2016-04-09T17:05:50.291Z,0
2016-04-09T17:06:02.134Z,0
2016-04-09T17:07:07.512Z,0
2016-04-09T17:08:19.017Z,62442
2016-04-09T17:08:31.955Z,62103
2016-04-09T17:08:45.330Z,61760
2016-04-09T17:09:01.002Z,61313
2016-04-09T17:09:13.552Z,60758
2016-04-09T17:10:24.148Z,58605
2016-04-09T17:10:36.133Z,58570
2016-04-09T17:28:26.103Z,38513
2016-04-09T17:28:43.212Z,37881
2016-04-09T17:53:38.108Z,14658
2016-04-09T17:55:46.362Z,13524
2016-04-09T18:05:53.406Z,8295
2016-04-09T18:06:05.124Z,8198
2016-04-09T18:13:11.143Z,5309
2016-04-09T18:13:22.209Z,5232
2016-04-09T18:13:39.350Z,5136
2016-04-09T18:13:49.771Z,5084
2016-04-09T18:14:59.587Z,4693
2016-04-09T18:15:10.899Z,4624
2016-04-09T18:34:38.124Z,656
2016-04-09T18:34:48.312Z,647
2016-04-09T18:42:11.003Z,211
2016-04-09T18:42:22.131Z,211
2016-04-09T18:42:33.053Z,219
2016-04-09T18:42:43.084Z,202
2016-04-09T18:43:00.849Z,185
2016-04-09T18:43:18.477Z,193
2016-04-09T18:43:29.321Z,176
2016-04-09T18:43:39.946Z,176
2016-04-09T18:58:39.596Z,29
2016-04-09T18:58:50.517Z,29
2016-04-09T18:59:09.596Z,15
2016-04-09T18:59:20.223Z,15
2016-04-09T19:01:23.135Z,15
2016-04-09T19:01:35.400Z,15
2016-04-09T19:01:46.760Z,15
2016-04-09T19:01:57.385Z,15
2016-04-09T19:02:07.854Z,15
2016-04-09T19:02:42.497Z,15
2016-04-09T19:02:54.716Z,15
2016-04-09T19:03:05.357Z,15
2016-04-09T19:03:15.860Z,15
2016-04-09T19:03:27.047Z,15
2016-04-09T19:03:40.703Z,15
2016-04-09T19:03:51.094Z,15
2016-04-09T19:04:08.594Z,15
2016-04-09T19:04:19.331Z,15
2016-04-09T19:04:29.722Z,15
2016-04-09T19:11:47.787Z,8
2016-04-09T19:11:58.334Z,8
2016-04-09T19:12:09.990Z,8
2016-04-09T19:12:20.242Z,8
2016-04-09T19:19:23.449Z,0
2016-04-09T19:19:33.309Z,0
2016-04-09T19:19:49.699Z,0
2016-04-09T19:19:58.949Z,0
2016-04-09T19:20:10.387Z,0
2016-04-09T19:21:09.201Z,0
2016-04-09T19:21:19.969Z,8
2016-04-09T19:21:29.203Z,8
2016-04-09T19:21:39.422Z,8
2016-04-09T19:21:49.407Z,8
2016-04-09T19:21:59.485Z,8
2016-04-09T19:22:16.270Z,8
2016-04-09T19:23:22.616Z,0
2016-04-09T19:23:33.053Z,0
2016-04-09T19:23:42.334Z,0
2016-04-09T19:24:47.056Z,0
2016-04-09T19:24:57.837Z,0
2016-04-09T19:25:08.947Z,0
2016-04-09T19:26:12.606Z,0
2016-04-09T19:26:22.156Z,0
2016-04-09T19:27:33.002Z,0
2016-04-09T19:28:40.816Z,8
2016-04-09T19:28:50.894Z,8
2016-04-09T19:29:00.582Z,8
2016-04-09T19:30:46.916Z,8
2016-04-09T19:31:52.685Z,8
2016-04-09T19:32:12.138Z,8
2016-04-09T19:32:21.358Z,8
2016-04-09T19:32:31.624Z,8
2016-04-09T19:32:55.624Z,8
2016-04-09T19:33:05.108Z,8
2016-04-09T19:33:18.518Z,8
2016-04-09T19:33:28.205Z,8
2016-04-09T19:33:38.049Z,8
2016-04-09T19:33:49.158Z,8
2016-04-09T19:33:58.502Z,8
2016-04-09T19:34:08.815Z,8
2016-04-09T19:34:18.427Z,8
2016-04-09T19:34:27.677Z,8
2016-04-09T19:34:37.443Z,8
2016-04-09T19:34:47.224Z,8
2016-04-09T19:34:59.755Z,8
2016-04-09T19:35:10.771Z,8
2016-04-09T19:35:21.367Z,8
2016-04-09T19:35:30.805Z,8
2016-04-09T19:35:40.946Z,8
2016-04-09T19:35:50.758Z,8
2016-04-09T19:36:02.102Z,0
2016-04-09T19:36:12.664Z,0
2016-04-09T19:36:23.619Z,0
2016-04-09T19:36:33.276Z,0
2016-04-09T19:36:42.698Z,0
2016-04-09T19:37:00.885Z,0
2016-04-09T19:37:10.323Z,0
2016-04-09T19:37:20.169Z,0
2016-04-09T19:37:36.685Z,0
2016-04-09T20:19:17.470Z,0
2016-04-09T20:19:27.532Z,0
2016-04-09T20:19:38.814Z,0
2016-04-09T20:19:50.454Z,0
2016-04-09T20:41:35.263Z,0
2016-04-09T20:41:46.576Z,0
2016-04-09T20:41:56.638Z,0
2016-04-09T20:42:06.654Z,0
2016-04-09T20:42:16.951Z,0
2016-04-09T20:42:27.797Z,0
2016-04-09T20:42:37.891Z,0
2016-04-09T20:42:47.969Z,0
2016-04-09T20:42:58.032Z,0
2016-04-09T20:43:09.110Z,0
2016-04-09T20:43:19.175Z,0
2016-04-09T20:43:29.441Z,0
2016-04-09T20:43:48.488Z,0
2016-04-09T20:43:58.675Z,0
2016-04-09T20:44:08.707Z,0
2016-04-09T20:44:19.349Z,0
2016-04-09T20:44:29.334Z,0
2016-04-09T20:53:02.481Z,0
2016-04-09T20:53:12.449Z,0
2016-04-09T20:53:22.702Z,0
2016-04-09T20:53:33.796Z,0
2016-04-09T20:53:43.859Z,0
2016-04-09T20:53:53.827Z,0
2016-04-09T20:54:03.859Z,0
2016-04-09T20:54:13.921Z,0
2016-04-09T20:54:23.829Z,0
2016-04-09T20:54:33.783Z,0
2016-04-09T20:54:43.783Z,0
2016-04-09T20:54:53.720Z,0
2016-04-09T20:55:12.158Z,0
2016-04-09T20:55:23.192Z,0
2016-04-09T20:55:33.207Z,0
2016-04-09T20:55:44.051Z,0
2016-04-09T20:56:01.395Z,0
2016-04-09T20:56:11.395Z,0
2016-04-09T20:56:21.334Z,0
2016-04-09T20:56:32.163Z,0
2016-04-09T20:56:42.178Z,0
2016-04-09T20:56:53.022Z,0
2016-04-09T20:57:03.538Z,0
2016-04-09T20:57:13.928Z,0
2016-04-09T20:57:30.994Z,0
2016-04-09T20:57:41.369Z,0
2016-04-09T20:57:58.869Z,0
2016-04-09T20:58:08.697Z,0
2016-04-09T20:58:18.622Z,0
2016-04-09T20:58:28.559Z,0
2016-04-09T20:58:45.653Z,0
2016-04-09T20:58:56.622Z,0
2016-04-09T20:59:06.715Z,0
2016-04-09T20:59:23.780Z,0
2016-04-09T20:59:33.686Z,0
2016-04-09T20:59:43.592Z,0
2016-04-09T20:59:53.514Z,0
2016-04-09T21:00:03.592Z,0
2016-04-09T21:00:13.967Z,0
2016-04-09T21:00:33.049Z,0
2016-04-09T21:13:17.409Z,0
2016-04-09T21:13:28.130Z,0
2016-04-09T21:13:37.302Z,0
2016-04-09T21:13:46.802Z,0
2016-04-09T21:13:56.318Z,0
2016-04-09T21:14:05.568Z,0
2016-04-09T21:14:14.724Z,0
2016-04-09T21:15:20.870Z,0
2016-04-09T21:15:30.010Z,0
2016-04-09T21:15:39.401Z,0
2016-04-09T21:15:55.729Z,0
2016-04-09T21:16:12.745Z,0
2016-04-09T21:17:21.328Z,0
2016-04-09T21:17:30.625Z,0
2016-04-09T21:17:39.765Z,0
2016-04-09T21:17:48.890Z,0
2016-04-09T21:17:58.062Z,0
2016-04-09T21:18:07.234Z,0
2016-04-09T21:18:17.219Z,0
2016-04-09T21:18:26.379Z,0
2016-04-09T21:18:35.676Z,0
2016-04-09T21:18:44.816Z,0
2016-04-09T21:19:51.615Z,0
2016-04-09T21:21:09.681Z,0
2016-04-09T21:21:29.027Z,0
2016-04-09T21:21:38.199Z,0
2016-04-09T21:21:47.871Z,0
2016-04-09T21:21:57.106Z,0
2016-04-09T21:22:06.606Z,0
2016-04-09T21:22:17.481Z,0
2016-04-09T21:22:33.795Z,0
2016-04-09T21:22:43.483Z,0
2016-04-09T21:22:52.733Z,0
2016-04-09T21:23:03.092Z,0
2016-04-09T21:24:03.361Z,0
2016-04-09T21:24:20.441Z,0
2016-04-09T21:24:31.128Z,0
2016-04-09T21:24:40.363Z,0
2016-04-09T21:24:49.800Z,0
2016-04-09T21:24:59.581Z,0
2016-04-09T21:25:08.878Z,0
2016-04-09T21:25:20.132Z,0
2016-04-09T21:25:29.367Z,0
2016-04-09T21:25:39.038Z,0
2016-04-09T21:25:48.226Z,0
2016-04-09T21:25:57.476Z,0
2016-04-09T21:26:06.773Z,0
2016-04-09T21:26:16.398Z,0
2016-04-09T21:26:26.165Z,0
2016-04-09T21:26:35.806Z,0
2016-04-09T21:26:45.775Z,0
2016-04-09T21:27:02.572Z,0
2016-04-09T21:44:34.354Z,0
2016-04-09T21:46:40.735Z,0
2016-04-09T21:56:30.746Z,0
2016-04-09T21:56:40.887Z,0
2016-04-09T21:56:50.684Z,0
2016-04-09T21:56:59.825Z,0
2016-04-09T21:57:10.028Z,0
2016-04-09T21:58:24.345Z,0
2016-04-09T21:58:33.673Z,0
2016-04-09T21:58:44.736Z,0
2016-04-09T21:58:54.486Z,0
2016-04-09T21:59:04.064Z,0
2016-04-09T21:59:20.472Z,0
2016-04-09T21:59:29.660Z,0
2016-04-09T21:59:38.863Z,0
2016-04-09T22:07:58.464Z,0
2016-04-09T22:08:15.558Z,0
2016-04-09T22:08:26.513Z,0
2016-04-09T22:08:36.669Z,0
2016-04-09T22:08:46.685Z,0
